Time;durP1;ratioP1;P1;durP2;ratioP2;P2;SDS_P1;SDS_P2;PMS_P1;PMS_P2;Temp;Humidity;BMP_temperature;BMP_pressure;BME280_temperature;BME280_humidity;BME280_pressure;Samples;Min_cycle;Max_cycle;Signal;HPM_P1;HPM_P2
2023/06/30 00:00:40;;;;;;;19.20;12.02;;;22.80;99.90;;;;;;5096277;28;20024;-84
2023/06/30 00:03:06;;;;;;;19.00;11.57;;;22.80;99.90;;;;;;5096648;28;20020;-83
2023/06/30 00:05:32;;;;;;;20.60;11.98;;;22.90;99.90;;;;;;5096266;28;20036;-83
2023/06/30 00:07:58;;;;;;;19.70;11.73;;;23.00;99.90;;;;;;5096408;28;20027;-82
2023/06/30 00:10:25;;;;;;;17.45;12.68;;;23.10;99.90;;;;;;5096714;28;20028;-83
2023/06/30 00:12:51;;;;;;;;;;;23.10;99.90;;;;;;5097031;28;20031;-82
2023/06/30 00:15:17;;;;;;;16.15;11.48;;;23.10;99.90;;;;;;5095877;28;19916;-83
2023/06/30 00:17:43;;;;;;;19.55;14.05;;;22.90;99.90;;;;;;5096142;28;20020;-83
2023/06/30 00:20:11;;;;;;;20.60;12.88;;;22.90;99.90;;;;;;5096089;28;20024;-83
2023/06/30 00:22:37;;;;;;;25.65;13.05;;;22.90;99.90;;;;;;5095965;28;20154;-83
2023/06/30 00:25:04;;;;;;;23.15;12.63;;;23.00;99.90;;;;;;5095609;28;20028;-83
2023/06/30 00:27:31;;;;;;;18.45;11.13;;;23.00;99.90;;;;;;5096395;28;20101;-82
2023/06/30 00:29:57;;;;;;;;;;;22.90;99.90;;;;;;5096677;28;20028;-83
2023/06/30 00:32:24;;;;;;;17.83;8.90;;;22.90;99.90;;;;;;5096149;28;20002;-83
2023/06/30 00:34:50;;;;;;;16.40;9.38;;;22.90;99.90;;;;;;5096295;28;20020;-82
2023/06/30 00:37:16;;;;;;;14.75;9.32;;;22.90;99.90;;;;;;5095684;28;20484;-82
2023/06/30 00:39:42;;;;;;;18.52;9.40;;;22.90;99.90;;;;;;5096210;28;20082;-83
2023/06/30 00:42:08;;;;;;;18.30;8.10;;;22.90;99.90;;;;;;5095830;28;20376;-83
2023/06/30 00:44:34;;;;;;;18.15;10.75;;;22.90;99.90;;;;;;5094118;28;20059;-83
2023/06/30 00:47:00;;;;;;;27.42;12.60;;;22.90;99.90;;;;;;5095600;28;20032;-83
2023/06/30 00:49:30;;;;;;;22.23;13.35;;;22.80;99.90;;;;;;5096134;28;20090;-82
2023/06/30 00:51:56;;;;;;;18.27;12.68;;;22.70;99.90;;;;;;5095387;28;20032;-82
2023/06/30 00:54:23;;;;;;;21.35;12.10;;;22.60;99.90;;;;;;5094165;28;20472;-83
2023/06/30 00:56:49;;;;;;;22.40;11.40;;;22.60;99.90;;;;;;5095398;28;20020;-83
2023/06/30 00:59:15;;;;;;;21.88;10.50;;;22.60;99.90;;;;;;5095147;28;20103;-83
2023/06/30 01:02:01;;;;;;;17.30;9.15;;;22.60;99.90;;;;;;5095509;28;20052;-83
2023/06/30 01:04:44;;;;;;;14.02;8.13;;;22.60;99.90;;;;;;5091065;28;20192;-83
2023/06/30 01:07:27;;;;;;;14.80;8.63;;;22.70;99.90;;;;;;5095123;28;20108;-83
2023/06/30 01:10:15;;;;;;;14.80;7.57;;;22.80;99.90;;;;;;5095338;28;20031;-83
2023/06/30 01:12:43;;;;;;;13.15;8.13;;;22.80;99.90;;;;;;5095210;28;20049;-83
2023/06/30 01:15:11;;;;;;;15.50;7.80;;;22.80;99.90;;;;;;5094849;28;20040;-82
2023/06/30 01:17:45;;;;;;;11.85;6.93;;;22.90;99.90;;;;;;5095112;28;20107;-83
2023/06/30 01:20:16;;;;;;;13.80;7.55;;;22.90;99.90;;;;;;5095607;28;20110;-83
2023/06/30 01:22:56;;;;;;;12.15;6.90;;;22.90;99.90;;;;;;5095229;28;20028;-84
2023/06/30 01:25:27;;;;;;;14.88;7.90;;;23.00;99.90;;;;;;5093714;28;20028;-84
2023/06/30 01:27:55;;;;;;;14.80;8.07;;;23.00;99.90;;;;;;5095123;28;20035;-83
2023/06/30 01:30:23;;;;;;;18.75;9.38;;;23.10;99.90;;;;;;5094569;28;20023;-82
2023/06/30 01:32:54;;;;;;;17.13;9.25;;;23.10;99.90;;;;;;5094868;28;20024;-84
2023/06/30 01:35:24;;;;;;;13.27;9.02;;;23.20;99.90;;;;;;5093205;28;20024;-83
2023/06/30 01:37:51;;;;;;;17.25;10.00;;;23.20;99.90;;;;;;5094608;28;20024;-83
2023/06/30 01:40:16;;;;;;;;;;;23.10;99.90;;;;;;5095489;28;20020;-84
2023/06/30 01:42:43;;;;;;;13.95;9.20;;;23.10;99.90;;;;;;5094661;28;19904;-83
2023/06/30 01:45:11;;;;;;;13.50;8.95;;;23.20;99.90;;;;;;5094149;28;20130;-82
2023/06/30 01:47:37;;;;;;;13.73;9.15;;;23.20;99.90;;;;;;5094258;28;20419;-84
2023/06/30 01:50:05;;;;;;;14.30;9.48;;;23.20;99.90;;;;;;5094371;28;20060;-83
2023/06/30 01:52:31;;;;;;;19.52;9.27;;;23.20;99.90;;;;;;5094403;28;20435;-84
2023/06/30 01:54:58;;;;;;;12.45;7.68;;;23.20;99.90;;;;;;5094575;28;20031;-83
2023/06/30 01:57:24;;;;;;;15.55;7.88;;;23.20;99.90;;;;;;5094806;28;20460;-83
2023/06/30 01:59:50;;;;;;;11.73;7.90;;;23.10;99.90;;;;;;5093972;28;20031;-83
2023/06/30 02:02:16;;;;;;;12.50;7.47;;;23.00;99.90;;;;;;5094585;28;20028;-83
2023/06/30 02:04:42;;;;;;;14.32;7.75;;;22.90;99.90;;;;;;5094508;28;20198;-83
2023/06/30 02:07:08;;;;;;;12.05;7.57;;;22.90;99.90;;;;;;5093953;28;20047;-83
2023/06/30 02:09:34;;;;;;;13.18;8.15;;;22.90;99.90;;;;;;5093659;28;20020;-83
2023/06/30 02:12:00;;;;;;;12.23;8.05;;;22.90;99.90;;;;;;5093904;28;20035;-82
2023/06/30 02:14:26;;;;;;;13.80;8.50;;;22.80;99.90;;;;;;5093605;28;20016;-83
2023/06/30 02:16:52;;;;;;;20.23;8.32;;;22.70;99.90;;;;;;5094479;28;20050;-82
2023/06/30 02:19:23;;;;;;;14.07;8.18;;;22.80;99.90;;;;;;5093902;28;20028;-83
2023/06/30 02:21:52;;;;;;;14.88;8.85;;;22.80;99.90;;;;;;5092518;28;20021;-83
2023/06/30 02:24:18;;;;;;;14.63;8.57;;;22.80;99.90;;;;;;5094117;28;20027;-83
2023/06/30 02:26:45;;;;;;;17.90;8.13;;;22.80;99.90;;;;;;5093652;28;20032;-83
2023/06/30 02:29:11;;;;;;;14.75;8.63;;;22.80;99.90;;;;;;5092327;28;20077;-83
2023/06/30 02:31:37;;;;;;;13.80;8.40;;;22.90;99.90;;;;;;5092408;28;20056;-84
2023/06/30 02:34:03;;;;;;;13.52;8.25;;;22.90;99.90;;;;;;5093856;28;20106;-83
2023/06/30 02:36:30;;;;;;;14.73;8.73;;;23.00;99.90;;;;;;5092113;28;20035;-83
2023/06/30 02:38:56;;;;;;;14.77;8.13;;;22.90;99.90;;;;;;5092225;28;20111;-83
2023/06/30 02:41:22;;;;;;;12.80;8.65;;;22.90;99.90;;;;;;5093566;28;20031;-83
2023/06/30 02:43:48;;;;;;;13.40;8.00;;;22.90;99.90;;;;;;5093269;28;20096;-83
2023/06/30 02:46:14;;;;;;;13.98;8.80;;;22.80;99.90;;;;;;5093298;28;20515;-83
2023/06/30 02:48:40;;;;;;;13.93;8.30;;;22.70;99.90;;;;;;5093444;28;20016;-83
2023/06/30 02:51:06;;;;;;;16.02;7.70;;;22.60;99.90;;;;;;5093849;28;20141;-83
2023/06/30 02:53:33;;;;;;;12.88;8.02;;;22.50;99.90;;;;;;5093343;28;20501;-83
2023/06/30 02:55:59;;;;;;;13.43;7.63;;;22.60;99.90;;;;;;5093189;28;20051;-83
2023/06/30 02:58:25;;;;;;;15.85;8.77;;;22.60;99.90;;;;;;5093277;28;20380;-82
2023/06/30 03:00:51;;;;;;;12.98;8.55;;;22.60;99.90;;;;;;5093095;28;20068;-83
2023/06/30 03:03:18;;;;;;;16.23;8.70;;;22.60;99.90;;;;;;5093383;28;20435;-83
2023/06/30 03:05:44;;;;;;;16.52;7.60;;;22.70;99.90;;;;;;5093148;28;20032;-83
2023/06/30 03:08:10;;;;;;;17.92;8.00;;;22.70;99.90;;;;;;5093651;28;20048;-82
2023/06/30 03:10:36;;;;;;;11.55;7.80;;;22.70;99.90;;;;;;5093183;28;20028;-83
2023/06/30 03:13:03;;;;;;;12.82;7.45;;;22.60;99.90;;;;;;5093463;28;20020;-83
2023/06/30 03:15:29;;;;;;;;;;;22.60;99.90;;;;;;5093040;28;20071;-82
2023/06/30 03:17:55;;;;;;;13.15;7.70;;;22.60;99.90;;;;;;5092889;28;19949;-82
2023/06/30 03:20:22;;;;;;;14.23;7.88;;;22.60;99.90;;;;;;5093477;28;20107;-82
2023/06/30 03:22:48;;;;;;;15.07;7.90;;;22.60;99.90;;;;;;5096828;28;20067;-82
2023/06/30 03:25:14;;;;;;;15.80;8.38;;;22.60;99.90;;;;;;5097455;28;20020;-81
2023/06/30 03:27:40;;;;;;;14.20;7.95;;;22.60;99.90;;;;;;5096943;28;20608;-82
2023/06/30 03:30:06;;;;;;;15.50;8.18;;;22.70;99.90;;;;;;5096841;28;20065;-82
2023/06/30 03:32:33;;;;;;;16.42;8.30;;;22.70;99.90;;;;;;5097193;28;20365;-83
2023/06/30 03:35:03;;;;;;;14.95;8.85;;;22.70;99.90;;;;;;5097435;28;20031;-83
2023/06/30 03:37:30;;;;;;;15.60;8.55;;;22.80;99.90;;;;;;5097102;28;20035;-82
2023/06/30 03:39:57;;;;;;;26.73;9.07;;;22.80;99.90;;;;;;5097422;28;20115;-82
2023/06/30 03:42:23;;;;;;;16.73;8.18;;;22.90;99.90;;;;;;5096840;28;20020;-81
2023/06/30 03:44:49;;;;;;;16.50;8.65;;;22.90;99.90;;;;;;5096864;28;20084;-83
2023/06/30 03:47:15;;;;;;;10.98;7.40;;;22.90;99.90;;;;;;5097334;28;20074;-83
2023/06/30 03:49:41;;;;;;;11.60;7.88;;;22.90;99.90;;;;;;5096930;28;20032;-82
2023/06/30 03:52:08;;;;;;;13.52;8.75;;;22.90;99.90;;;;;;5097468;28;20069;-82
2023/06/30 03:54:34;;;;;;;18.02;8.23;;;22.90;99.90;;;;;;5096767;28;20468;-83
2023/06/30 03:57:00;;;;;;;14.85;8.52;;;22.90;99.90;;;;;;5097170;28;20054;-83
2023/06/30 03:59:26;;;;;;;16.27;8.52;;;22.90;99.90;;;;;;5095344;28;20020;-84
2023/06/30 04:01:53;;;;;;;13.38;8.85;;;22.90;99.90;;;;;;5097177;28;20487;-84
2023/06/30 04:04:19;;;;;;;18.00;8.45;;;22.90;99.90;;;;;;5097160;28;20036;-83
2023/06/30 04:06:46;;;;;;;14.35;8.00;;;22.90;99.90;;;;;;5096445;28;20032;-83
2023/06/30 04:09:12;;;;;;;13.23;8.23;;;22.90;99.90;;;;;;5096332;28;20492;-84
2023/06/30 04:11:39;;;;;;;16.75;8.77;;;22.90;99.90;;;;;;5096618;28;20024;-83
2023/06/30 04:14:05;;;;;;;14.93;9.15;;;22.90;99.90;;;;;;5096428;28;20438;-80
2023/06/30 04:16:31;;;;;;;16.27;8.98;;;22.90;99.90;;;;;;5096155;28;20123;-83
2023/06/30 04:18:57;;;;;;;17.15;9.63;;;23.00;99.90;;;;;;5096230;28;20035;-84
2023/06/30 04:21:23;;;;;;;13.80;9.70;;;23.10;99.90;;;;;;5096329;28;20059;-82
2023/06/30 04:23:49;;;;;;;16.55;8.63;;;23.10;99.90;;;;;;5096432;28;20028;-83
2023/06/30 04:26:18;;;;;;;12.50;8.75;;;23.10;99.90;;;;;;5096542;28;20086;-84
2023/06/30 04:28:45;;;;;;;19.80;8.95;;;23.10;99.90;;;;;;5096044;28;20031;-83
2023/06/30 04:31:11;;;;;;;19.58;10.15;;;23.10;99.90;;;;;;5095919;28;20024;-83
2023/06/30 04:33:38;;;;;;;20.48;10.07;;;23.10;99.90;;;;;;5095198;28;20031;-84
2023/06/30 04:36:07;;;;;;;17.73;10.05;;;23.10;99.90;;;;;;5095897;28;20103;-83
2023/06/30 04:38:34;;;;;;;20.83;10.65;;;23.20;99.90;;;;;;5096283;28;20016;-84
2023/06/30 04:41:00;;;;;;;16.92;9.88;;;23.30;99.90;;;;;;5096096;28;20028;-82
2023/06/30 04:43:26;;;;;;;17.17;10.48;;;23.30;99.90;;;;;;5095743;28;20031;-83
2023/06/30 04:45:52;;;;;;;17.60;10.10;;;23.30;99.90;;;;;;5095432;28;20043;-83
2023/06/30 04:48:18;;;;;;;18.52;10.15;;;23.50;99.90;;;;;;5096208;28;20136;-82
2023/06/30 04:50:44;;;;;;;18.05;10.68;;;23.50;99.90;;;;;;5095691;28;20017;-84
2023/06/30 04:53:10;;;;;;;17.45;9.98;;;23.70;99.90;;;;;;5095487;28;20026;-81
2023/06/30 04:55:36;;;;;;;18.33;10.60;;;23.70;99.90;;;;;;5093992;28;20024;-82
2023/06/30 04:58:03;;;;;;;23.40;10.80;;;23.80;99.90;;;;;;5095648;28;20073;-82
2023/06/30 05:00:29;;;;;;;15.35;9.85;;;23.90;99.90;;;;;;5095339;28;20032;-82
2023/06/30 05:02:56;;;;;;;16.85;10.00;;;24.20;99.90;;;;;;5095566;28;20021;-81
2023/06/30 05:05:22;;;;;;;;;;;24.60;99.90;;;;;;5095523;28;20036;-82
2023/06/30 05:07:48;;;;;;;17.73;9.25;;;24.90;99.90;;;;;;5095123;28;19907;-82
2023/06/30 05:10:14;;;;;;;12.98;9.30;;;25.30;99.90;;;;;;5093885;28;20031;-82
2023/06/30 05:12:40;;;;;;;15.18;9.05;;;25.70;99.90;;;;;;5095365;28;20084;-83
2023/06/30 05:15:07;;;;;;;15.45;9.35;;;26.10;99.90;;;;;;5094967;28;20060;-83
2023/06/30 05:17:34;;;;;;;14.15;9.20;;;26.00;99.90;;;;;;5095524;28;20016;-83
2023/06/30 05:20:04;;;;;;;14.68;9.60;;;26.10;99.90;;;;;;5094618;28;20064;-83
2023/06/30 05:22:31;;;;;;;17.88;10.35;;;25.60;99.90;;;;;;5094526;28;20024;-83
2023/06/30 05:24:57;;;;;;;17.05;10.32;;;25.30;99.90;;;;;;5094264;28;20050;-83
2023/06/30 05:27:23;;;;;;;19.38;11.20;;;24.70;99.90;;;;;;5095152;28;20032;-84
2023/06/30 05:29:49;;;;;;;15.02;10.07;;;24.40;99.90;;;;;;5094680;28;20057;-83
2023/06/30 05:32:15;;;;;;;16.02;10.63;;;24.20;99.90;;;;;;5094075;28;20029;-83
2023/06/30 05:34:46;;;;;;;22.33;10.70;;;24.00;99.90;;;;;;5094220;28;20087;-82
2023/06/30 05:37:13;;;;;;;22.23;9.80;;;24.10;99.90;;;;;;5093956;28;20161;-83
2023/06/30 05:39:39;;;;;;;17.35;9.52;;;24.40;99.90;;;;;;5094723;28;20024;-80
2023/06/30 05:42:05;;;;;;;20.17;10.48;;;24.30;99.90;;;;;;5094417;28;20032;-83
2023/06/30 05:44:31;;;;;;;18.83;9.27;;;24.30;99.90;;;;;;5093300;28;20467;-82
2023/06/30 05:46:57;;;;;;;15.15;9.90;;;24.20;99.90;;;;;;5094376;28;20376;-83
2023/06/30 05:49:25;;;;;;;15.85;9.98;;;24.20;99.90;;;;;;5092604;28;20391;-83
2023/06/30 05:51:51;;;;;;;14.98;9.65;;;24.60;99.90;;;;;;5094172;28;20024;-82
2023/06/30 05:54:17;;;;;;;14.75;9.35;;;25.30;99.90;;;;;;5094222;28;20456;-82
2023/06/30 05:56:43;;;;;;;24.17;9.73;;;26.20;99.90;;;;;;5093612;28;20483;-82
2023/06/30 05:59:10;;;;;;;13.68;9.05;;;26.90;99.90;;;;;;5093643;28;20475;-82
2023/06/30 06:01:40;;;;;;;20.33;9.25;;;27.70;99.90;;;;;;5093814;28;20140;-83
2023/06/30 06:04:10;;;;;;;16.88;9.25;;;28.50;99.90;;;;;;5093134;28;20021;-83
2023/06/30 06:06:39;;;;;;;21.35;8.77;;;29.00;99.90;;;;;;5091624;28;20575;-84
2023/06/30 06:09:06;;;;;;;14.20;7.72;;;30.10;99.90;;;;;;5092916;28;20433;-83
2023/06/30 06:11:32;;;;;;;11.70;6.72;;;31.30;99.90;;;;;;5092841;28;20234;-83
2023/06/30 06:13:58;;;;;;;13.00;7.55;;;31.90;99.90;;;;;;5093354;28;20059;-83
2023/06/30 06:16:24;;;;;;;;;;;33.20;99.90;;;;;;5093206;28;20044;-83
2023/06/30 06:18:50;;;;;;;11.85;6.82;;;33.70;99.90;;;;;;5092928;28;19912;-83
2023/06/30 06:21:20;;;;;;;11.93;7.28;;;33.40;99.90;;;;;;5092672;28;20077;-84
2023/06/30 06:23:46;;;;;;;15.15;7.22;;;33.00;99.90;;;;;;5092835;28;20515;-83
2023/06/30 06:26:12;;;;;;;;;;;33.20;99.90;;;;;;5093293;28;20063;-83
2023/06/30 06:28:38;;;;;;;9.98;6.63;;;33.50;99.90;;;;;;5092743;28;19904;-82
2023/06/30 06:31:04;;;;;;;11.77;6.30;;;34.00;99.90;;;;;;5092644;28;20027;-82
2023/06/30 06:33:30;;;;;;;11.18;6.55;;;33.40;99.90;;;;;;5091193;28;20032;-83
2023/06/30 06:35:56;;;;;;;13.93;6.88;;;34.00;99.90;;;;;;5092667;28;20464;-83
2023/06/30 06:38:22;;;;;;;12.73;6.72;;;34.40;99.90;;;;;;5090982;28;20039;-82
2023/06/30 06:40:48;;;;;;;10.95;5.63;;;35.30;99.90;;;;;;5091441;28;20024;-82
2023/06/30 06:43:14;;;;;;;12.82;6.03;;;35.70;99.90;;;;;;5092956;28;20034;-83
2023/06/30 06:45:43;;;;;;;13.82;6.63;;;35.10;99.90;;;;;;5092486;28;20038;-83
2023/06/30 06:48:21;;;;;;;12.82;6.00;;;35.60;99.90;;;;;;5093180;28;20028;-84
2023/06/30 06:50:48;;;;;;;10.23;5.30;;;35.10;99.90;;;;;;5093045;28;20422;-81
2023/06/30 06:53:24;;;;;;;11.77;6.10;;;35.60;99.90;;;;;;5092384;28;20391;-82
2023/06/30 06:55:51;;;;;;;10.60;6.22;;;35.50;99.90;;;;;;5091929;28;20414;-82
2023/06/30 06:58:18;;;;;;;12.35;5.72;;;35.60;99.90;;;;;;5091330;28;20016;-83
2023/06/30 07:00:47;;;;;;;9.27;5.60;;;35.80;99.90;;;;;;5092459;28;20032;-82
2023/06/30 07:03:13;;;;;;;10.90;5.47;;;36.40;99.90;;;;;;5092510;28;20435;-82
2023/06/30 07:05:40;;;;;;;10.45;5.13;;;37.00;99.90;;;;;;5092416;28;20483;-81
2023/06/30 07:08:09;;;;;;;10.32;5.65;;;37.60;99.90;;;;;;5092725;28;20027;-82
2023/06/30 07:10:35;;;;;;;11.48;5.30;;;37.50;99.90;;;;;;5091099;28;20028;-83
2023/06/30 07:13:02;;;;;;;8.43;5.45;;;37.10;99.90;;;;;;5091196;28;20423;-82
2023/06/30 07:15:29;;;;;;;13.68;5.90;;;36.70;99.90;;;;;;5092066;28;20087;-83
2023/06/30 07:17:57;;;;;;;13.70;5.45;;;36.30;99.90;;;;;;5092542;28;20413;-84
2023/06/30 07:20:24;;;;;;;8.32;5.55;;;36.80;99.90;;;;;;5091025;28;20100;-83
2023/06/30 07:22:54;;;;;;;10.98;5.60;;;37.30;99.90;;;;;;5092777;28;20024;-86
2023/06/30 07:25:20;;;;;;;11.98;6.22;;;36.30;99.90;;;;;;5091795;28;20032;-82
2023/06/30 07:27:52;;;;;;;11.82;5.78;;;35.50;99.90;;;;;;5092644;28;20024;-83
2023/06/30 07:30:20;;;;;;;12.43;5.90;;;35.10;99.90;;;;;;5091966;28;20036;-84
2023/06/30 07:32:46;;;;;;;15.60;7.45;;;34.80;99.90;;;;;;5092347;28;20036;-83
2023/06/30 07:35:13;;;;;;;19.13;6.20;;;34.60;99.90;;;;;;5092410;28;20390;-84
2023/06/30 07:37:39;;;;;;;14.77;6.57;;;35.10;99.90;;;;;;5092311;28;20099;-83
2023/06/30 07:40:07;;;;;;;9.93;6.40;;;34.50;99.90;;;;;;5091000;28;20127;-83
2023/06/30 07:42:33;;;;;;;16.27;6.72;;;34.60;99.90;;;;;;5091406;28;20024;-83
2023/06/30 07:44:59;;;;;;;12.90;6.32;;;34.30;99.90;;;;;;5092559;28;20089;-84
2023/06/30 07:47:25;;;;;;;12.77;6.15;;;34.20;99.90;;;;;;5092109;28;20021;-83
2023/06/30 07:49:51;;;;;;;14.73;6.30;;;34.30;99.90;;;;;;5092100;28;20028;-83
2023/06/30 07:52:18;;;;;;;11.48;6.07;;;34.30;99.90;;;;;;5090959;28;20028;-82
2023/06/30 07:54:46;;;;;;;11.82;6.45;;;34.40;99.90;;;;;;5091941;28;20031;-83
2023/06/30 07:57:12;;;;;;;11.52;6.40;;;34.50;99.90;;;;;;5091782;28;20035;-82
2023/06/30 07:59:38;;;;;;;11.23;6.50;;;34.30;99.90;;;;;;5091752;28;20353;-82
2023/06/30 08:02:06;;;;;;;;;;;33.90;99.90;;;;;;5092778;28;20028;-83
2023/06/30 08:04:32;;;;;;;14.32;6.50;;;33.20;99.90;;;;;;5092102;28;19904;-83
2023/06/30 08:06:58;;;;;;;17.40;7.10;;;33.00;99.90;;;;;;5092761;28;20468;-83
2023/06/30 08:09:24;;;;;;;;;;;32.60;99.90;;;;;;5095537;28;20024;-84
2023/06/30 08:11:50;;;;;;;13.55;7.10;;;33.00;99.90;;;;;;5095791;28;19904;-83
2023/06/30 08:14:16;;;;;;;;;;;33.50;99.90;;;;;;5096104;28;20024;-84
2023/06/30 08:16:42;;;;;;;15.73;6.95;;;33.80;99.90;;;;;;5095463;28;19916;-84
2023/06/30 08:19:08;;;;;;;;;;;33.90;99.90;;;;;;5096493;28;20032;-83
2023/06/30 08:21:34;;;;;;;9.02;6.05;;;34.10;99.90;;;;;;5095540;28;19996;-84
2023/06/30 08:24:00;;;;;;;;;;;33.50;99.90;;;;;;5094586;28;20039;-84
2023/06/30 08:26:26;;;;;;;11.65;6.50;;;33.00;99.90;;;;;;5095668;28;20356;-83
2023/06/30 08:28:51;;;;;;;;;;;33.30;99.90;;;;;;5095648;28;20084;-83
2023/06/30 08:31:18;;;;;;;41.17;7.68;;;33.60;99.90;;;;;;5093685;28;19998;-83
2023/06/30 08:33:44;;;;;;;15.30;7.18;;;33.10;99.90;;;;;;5095555;28;20020;-83
2023/06/30 08:36:10;;;;;;;;;;;32.60;99.90;;;;;;5095869;28;20035;-83
2023/06/30 08:38:36;;;;;;;15.73;7.38;;;33.10;99.90;;;;;;5095051;28;19988;-81
2023/06/30 08:41:02;;;;;;;;;;;33.70;99.90;;;;;;5095276;28;20036;-84
2023/06/30 08:43:31;;;;;;;13.38;7.45;;;34.00;99.90;;;;;;5094880;28;19910;-82
2023/06/30 08:46:01;;;;;;;17.17;7.38;;;34.10;99.90;;;;;;5095199;28;20032;-84
2023/06/30 08:48:29;;;;;;;11.60;7.35;;;34.30;99.90;;;;;;5095363;28;20473;-83
2023/06/30 08:51:05;;;;;;;15.07;9.95;;;33.50;99.90;;;;;;5095458;28;20032;-83
2023/06/30 08:53:31;;;;;;;13.02;7.50;;;33.80;99.90;;;;;;5095450;28;20081;-84
2023/06/30 08:55:59;;;;;;;11.77;7.25;;;34.20;99.90;;;;;;5093642;28;20035;-83
2023/06/30 08:58:28;;;;;;;12.05;7.45;;;34.40;99.90;;;;;;5093947;28;20043;-83
2023/06/30 09:00:55;;;;;;;12.63;7.57;;;34.20;99.90;;;;;;5094596;28;20480;-84
2023/06/30 09:03:22;;;;;;;11.98;7.40;;;34.30;99.90;;;;;;5094893;28;20028;-85
2023/06/30 09:05:53;;;;;;;14.43;7.75;;;34.40;99.90;;;;;;5094139;28;20149;-83
2023/06/30 09:08:23;;;;;;;11.82;7.35;;;34.10;99.90;;;;;;5094910;28;20367;-80
2023/06/30 09:10:52;;;;;;;14.30;7.53;;;34.20;99.90;;;;;;5094862;28;20042;-84
2023/06/30 09:13:20;;;;;;;12.25;7.38;;;34.00;99.90;;;;;;5094778;28;20031;-83
2023/06/30 09:15:46;;;;;;;12.48;7.40;;;33.90;99.90;;;;;;5093875;28;20052;-83
2023/06/30 09:18:13;;;;;;;12.07;7.13;;;33.90;99.90;;;;;;5094583;28;20043;-83
2023/06/30 09:20:39;;;;;;;12.73;7.65;;;33.70;99.90;;;;;;5094390;28;20051;-84
2023/06/30 09:23:06;;;;;;;13.98;7.57;;;33.20;99.90;;;;;;5093612;28;20077;-83
2023/06/30 09:25:35;;;;;;;11.82;7.50;;;33.20;99.90;;;;;;5094310;28;20096;-85
2023/06/30 09:28:09;;;;;;;13.63;7.75;;;33.30;99.90;;;;;;5094320;28;20127;-84
2023/06/30 09:30:38;;;;;;;10.25;8.05;;;33.40;99.90;;;;;;5094284;28;20024;-83
2023/06/30 09:33:06;;;;;;;13.32;8.10;;;32.80;99.90;;;;;;5094044;28;20028;-84
2023/06/30 09:35:44;;;;;;;12.00;7.68;;;33.00;99.90;;;;;;5094127;28;20460;-83
2023/06/30 09:38:15;;;;;;;13.40;7.65;;;33.00;99.90;;;;;;5093923;28;20062;-84
2023/06/30 09:40:48;;;;;;;17.05;8.43;;;33.20;99.90;;;;;;5093929;28;20085;-83
2023/06/30 09:43:19;;;;;;;14.48;8.30;;;32.80;99.90;;;;;;5094129;28;20021;-84
2023/06/30 09:45:49;;;;;;;16.77;8.38;;;32.50;99.90;;;;;;5093304;28;20051;-84
2023/06/30 09:48:15;;;;;;;13.07;8.95;;;32.60;99.90;;;;;;5093932;28;20024;-84
2023/06/30 09:50:42;;;;;;;13.32;9.10;;;32.60;99.90;;;;;;5094056;28;20024;-84
2023/06/30 09:53:09;;;;;;;16.48;8.77;;;32.30;99.90;;;;;;5093586;28;20073;-85
2023/06/30 09:55:51;;;;;;;14.07;9.10;;;32.40;99.90;;;;;;5093634;28;20383;-83
2023/06/30 09:58:19;;;;;;;28.13;20.83;;;32.10;99.90;;;;;;5093998;28;20022;-85
2023/06/30 10:00:46;;;;;;;14.80;8.98;;;32.20;99.90;;;;;;5075178;28;20383;-83
2023/06/30 10:03:19;;;;;;;11.95;9.23;;;32.00;99.90;;;;;;5093467;28;20036;-84
2023/06/30 10:05:48;;;;;;;14.48;9.23;;;32.00;99.90;;;;;;5093256;28;20031;-84
2023/06/30 10:08:14;;;;;;;14.35;9.43;;;31.60;99.90;;;;;;5093275;28;20093;-83
2023/06/30 10:10:42;;;;;;;23.77;10.10;;;31.90;99.90;;;;;;5093334;28;20024;-84
2023/06/30 10:13:10;;;;;;;12.55;8.77;;;31.80;99.90;;;;;;5093933;28;20024;-83
2023/06/30 10:15:36;;;;;;;13.43;8.18;;;31.60;99.90;;;;;;5093228;28;20499;-82
2023/06/30 10:18:04;;;;;;;21.27;8.82;;;31.40;99.90;;;;;;5092903;28;20024;-83
2023/06/30 10:20:30;;;;;;;14.93;8.48;;;31.30;99.90;;;;;;5093235;28;20089;-83
2023/06/30 10:23:00;;;;;;;11.05;8.57;;;31.40;99.90;;;;;;5092999;28;20028;-82
2023/06/30 10:25:29;;;;;;;10.35;8.45;;;31.50;99.90;;;;;;5093377;28;20031;-82
2023/06/30 10:27:56;;;;;;;12.02;8.50;;;31.00;99.90;;;;;;5092151;28;20084;-83
2023/06/30 10:30:23;;;;;;;15.27;8.57;;;31.20;99.90;;;;;;5092236;28;20031;-84
2023/06/30 10:32:49;;;;;;;11.52;8.77;;;31.40;99.90;;;;;;5092493;28;20016;-83
2023/06/30 10:35:16;;;;;;;12.80;9.00;;;31.50;99.90;;;;;;5092600;28;20027;-84
2023/06/30 10:37:42;;;;;;;19.58;9.63;;;31.40;99.90;;;;;;5092963;28;20024;-83
2023/06/30 10:40:27;;;;;;;11.63;8.27;;;31.70;99.90;;;;;;5092862;28;20081;-83
2023/06/30 10:42:55;;;;;;;16.02;8.65;;;31.50;99.90;;;;;;5092861;28;20043;-82
2023/06/30 10:45:26;;;;;;;14.27;9.30;;;31.60;99.90;;;;;;5092848;28;20020;-83
2023/06/30 10:47:52;;;;;;;11.70;8.70;;;31.30;99.90;;;;;;5093115;28;20028;-83
2023/06/30 10:50:22;;;;;;;15.48;9.35;;;31.60;99.90;;;;;;5093190;28;20027;-83
2023/06/30 10:52:52;;;;;;;16.00;9.23;;;31.40;99.90;;;;;;5093127;28;20034;-83
2023/06/30 10:55:23;;;;;;;12.95;8.52;;;31.00;99.90;;;;;;5093195;28;20024;-84
2023/06/30 10:57:53;;;;;;;14.63;8.10;;;31.20;99.90;;;;;;5092428;28;20016;-83
2023/06/30 11:00:21;;;;;;;12.65;8.43;;;30.80;99.90;;;;;;5093100;28;20109;-84
2023/06/30 11:02:57;;;;;;;14.30;8.85;;;30.70;99.90;;;;;;5093035;28;20447;-83
2023/06/30 11:05:28;;;;;;;21.55;9.65;;;30.60;99.90;;;;;;5092325;28;20030;-84
2023/06/30 11:08:09;;;;;;;16.08;9.40;;;30.90;99.90;;;;;;5092551;28;20035;-84
2023/06/30 11:10:37;;;;;;;14.50;8.25;;;31.10;99.90;;;;;;5093149;28;20056;-84
2023/06/30 11:13:09;;;;;;;12.98;8.73;;;31.00;99.90;;;;;;5093484;28;20032;-83
2023/06/30 11:15:45;;;;;;;11.30;8.57;;;30.90;99.90;;;;;;5092844;28;20372;-84
2023/06/30 11:18:22;;;;;;;11.40;8.30;;;31.10;99.90;;;;;;5095162;28;20426;-83
2023/06/30 11:21:01;;;;;;;13.13;9.02;;;31.00;99.90;;;;;;5093693;28;20146;-83
2023/06/30 11:23:32;;;;;;;11.63;8.05;;;30.90;99.90;;;;;;5092563;28;20488;-84
2023/06/30 11:26:10;;;;;;;13.30;8.50;;;31.30;99.90;;;;;;5092705;28;20040;-84
2023/06/30 11:28:37;;;;;;;13.50;9.20;;;31.40;99.90;;;;;;5092744;28;20317;-82
2023/06/30 11:31:03;;;;;;;16.00;8.32;;;31.20;99.90;;;;;;5091848;28;20040;-82
2023/06/30 11:33:30;;;;;;;14.35;8.75;;;31.10;99.90;;;;;;5092136;28;20032;-83
2023/06/30 11:35:59;;;;;;;13.80;8.63;;;31.10;99.90;;;;;;5092017;28;20028;-84
2023/06/30 11:38:25;;;;;;;11.90;8.30;;;30.80;99.90;;;;;;5092080;28;20021;-84
2023/06/30 11:40:52;;;;;;;14.82;8.60;;;30.90;99.90;;;;;;5092007;28;20028;-83
2023/06/30 11:43:21;;;;;;;11.82;8.27;;;30.90;99.90;;;;;;5094560;28;20377;-84
2023/06/30 11:46:00;;;;;;;15.52;8.45;;;31.00;99.90;;;;;;5096185;28;20140;-84
2023/06/30 11:48:47;;;;;;;10.32;7.60;;;31.20;99.90;;;;;;5096096;28;20025;-83
2023/06/30 11:51:13;;;;;;;17.58;11.55;;;30.90;99.90;;;;;;5096433;28;20035;-84
2023/06/30 11:53:45;;;;;;;19.30;10.70;;;30.70;99.90;;;;;;5094746;28;20026;-84
2023/06/30 11:56:11;;;;;;;14.90;9.75;;;30.60;99.90;;;;;;5095828;28;20471;-84
2023/06/30 11:58:59;;;;;;;30.83;10.18;;;30.30;99.90;;;;;;5095903;28;20383;-84
2023/06/30 12:01:26;;;;;;;25.38;13.27;;;30.40;99.90;;;;;;5096028;28;20464;-85
2023/06/30 12:03:59;;;;;;;15.25;10.90;;;30.60;99.90;;;;;;5096611;28;20020;-83
2023/06/30 12:06:28;;;;;;;18.15;10.45;;;30.40;99.90;;;;;;5096374;28;20036;-84
2023/06/30 12:08:54;;;;;;;15.90;9.15;;;30.30;99.90;;;;;;5095933;28;20063;-84
2023/06/30 12:11:21;;;;;;;;;;;30.50;99.90;;;;;;5096133;28;20028;-84
2023/06/30 12:13:48;;;;;;;13.85;9.43;;;30.80;99.90;;;;;;5096016;28;19908;-84
2023/06/30 12:16:14;;;;;;;17.85;9.02;;;30.70;99.90;;;;;;5094152;28;20055;-83
2023/06/30 12:18:44;;;;;;;13.75;10.88;;;30.40;99.90;;;;;;5095882;28;20081;-83
2023/06/30 12:21:13;;;;;;;17.30;10.55;;;30.10;99.90;;;;;;5096067;28;20028;-83
2023/06/30 12:23:43;;;;;;;13.82;9.02;;;30.10;99.90;;;;;;5096025;28;20095;-82
2023/06/30 12:26:15;;;;;;;13.32;8.70;;;29.80;99.90;;;;;;5095747;28;20066;-85
2023/06/30 12:28:42;;;;;;;15.43;9.55;;;30.20;99.90;;;;;;5095734;28;20024;-84
2023/06/30 12:31:08;;;;;;;13.25;9.27;;;30.00;99.90;;;;;;5095250;28;20051;-83
2023/06/30 12:33:34;;;;;;;;;;;30.00;99.90;;;;;;5095763;28;20448;-83
2023/06/30 12:36:07;;;;;;;14.68;8.27;;;29.90;99.90;;;;;;5095404;28;19914;-83
2023/06/30 12:38:33;;;;;;;14.40;9.10;;;30.10;99.90;;;;;;5095728;28;20165;-83
2023/06/30 12:40:59;;;;;;;15.93;9.18;;;30.30;99.90;;;;;;5093992;28;20038;-83
2023/06/30 12:43:27;;;;;;;14.38;9.18;;;30.40;99.90;;;;;;5095594;28;20024;-83